createdAt,value
2018-09-03T00:00:29.147Z,23.95
2018-09-03T00:01:38.558Z,23.9
2018-09-03T00:02:48.004Z,24
2018-09-03T00:03:57.431Z,23.91
2018-09-03T00:05:07.138Z,23.94
2018-09-03T00:06:16.301Z,23.91
2018-09-03T00:07:25.549Z,23.91
2018-09-03T00:08:34.980Z,23.87
2018-09-03T00:09:43.895Z,23.95
2018-09-03T00:10:52.558Z,23.9
2018-09-03T00:12:01.993Z,23.85
2018-09-03T00:13:10.913Z,24
2018-09-03T00:14:19.901Z,23.87
2018-09-03T00:15:29.332Z,23.88
2018-09-03T00:16:39.012Z,23.91
2018-09-03T00:17:48.177Z,23.91
2018-09-03T00:18:57.079Z,23.94
2018-09-03T00:20:07.033Z,23.95
2018-09-03T00:21:16.192Z,23.97
2018-09-03T00:22:25.365Z,23.88
2018-09-03T00:23:35.034Z,23.88
2018-09-03T00:24:44.980Z,23.88
2018-09-03T00:25:54.404Z,23.93
2018-09-03T00:27:04.077Z,23.91
2018-09-03T00:28:13.776Z,23.88
2018-09-03T00:29:23.456Z,23.94
2018-09-03T00:30:33.392Z,23.94
2018-09-03T00:31:43.088Z,23.95
2018-09-03T00:32:52.756Z,23.91
2018-09-03T00:34:02.431Z,23.88
2018-09-03T00:35:11.681Z,23.93
2018-09-03T00:36:20.911Z,23.9
2018-09-03T00:37:29.824Z,23.95
2018-09-03T00:38:39.495Z,23.91
2018-09-03T00:39:48.401Z,23.94
2018-09-03T00:40:57.567Z,23.91
2018-09-03T00:42:06.746Z,23.85
2018-09-03T00:43:16.472Z,23.85
2018-09-03T00:44:26.001Z,23.88
2018-09-03T00:45:35.439Z,23.95
2018-09-03T00:46:44.604Z,23.97
2018-09-03T00:47:54.326Z,23.9
2018-09-03T00:49:03.501Z,23.98
2018-09-03T00:50:13.218Z,23.94
2018-09-03T00:51:22.635Z,23.88
2018-09-03T00:52:32.084Z,23.9
2018-09-03T00:53:41.500Z,23.88
2018-09-03T00:54:50.689Z,23.9
2018-09-03T00:55:59.850Z,23.97
2018-09-03T00:57:09.278Z,23.93
2018-09-03T00:58:18.734Z,23.93
2018-09-03T00:59:28.437Z,23.98
2018-09-03T01:00:37.883Z,23.9
2018-09-03T01:01:47.628Z,23.9
2018-09-03T01:02:56.550Z,23.95
2018-09-03T01:04:06.244Z,23.9
2018-09-03T01:05:15.416Z,24.02
2018-09-03T01:06:25.400Z,23.97
2018-09-03T01:07:34.310Z,23.91
2018-09-03T01:08:43.720Z,23.88
2018-09-03T01:09:52.881Z,23.95
2018-09-03T01:11:02.063Z,23.95
2018-09-03T01:12:11.479Z,23.93
2018-09-03T01:13:20.687Z,23.93
2018-09-03T01:14:30.119Z,23.94
2018-09-03T01:15:39.546Z,23.88
2018-09-03T01:16:49.337Z,23.87
2018-09-03T01:17:58.768Z,23.97
2018-09-03T01:19:07.956Z,23.93
2018-09-03T01:20:17.118Z,23.91
2018-09-03T01:21:26.584Z,23.9
2018-09-03T01:22:35.448Z,23.85
2018-09-03T01:23:44.654Z,23.94
2018-09-03T01:24:53.805Z,23.9
2018-09-03T01:26:03.772Z,23.93
2018-09-03T01:27:13.201Z,23.95
2018-09-03T01:28:22.360Z,23.91
2018-09-03T01:29:31.729Z,23.9
2018-09-03T01:30:41.453Z,23.94
2018-09-03T01:31:51.391Z,23.93
2018-09-03T01:33:00.820Z,23.95
2018-09-03T01:34:09.732Z,23.9
2018-09-03T01:35:18.654Z,23.91
2018-09-03T01:36:28.090Z,23.93
2018-09-03T01:37:37.792Z,23.93
2018-09-03T01:38:47.198Z,23.91
2018-09-03T01:39:56.920Z,23.95
2018-09-03T01:41:06.344Z,23.95
2018-09-03T01:42:15.262Z,23.91
2018-09-03T01:43:24.433Z,23.97
2018-09-03T01:44:34.406Z,23.94
2018-09-03T01:45:43.578Z,23.88
2018-09-03T01:46:53.265Z,23.87
2018-09-03T01:48:02.967Z,23.98
2018-09-03T01:49:12.415Z,23.85
2018-09-03T01:50:21.586Z,23.93
2018-09-03T01:51:30.751Z,23.95
2018-09-03T01:52:40.454Z,23.93
2018-09-03T01:53:49.126Z,23.97
2018-09-03T01:54:58.821Z,23.9
2018-09-03T01:56:08.258Z,23.91
2018-09-03T01:57:17.944Z,23.9
2018-09-03T01:58:27.650Z,23.85
2018-09-03T01:59:36.837Z,23.94
2018-09-03T02:00:45.756Z,23.98
2018-09-03T02:01:54.668Z,23.94
2018-09-03T02:03:04.610Z,23.91
2018-09-03T02:04:14.311Z,23.95
2018-09-03T02:05:24.003Z,23.9
2018-09-03T02:06:33.688Z,23.91
2018-09-03T02:07:43.380Z,24
2018-09-03T02:08:53.078Z,23.98
2018-09-03T02:10:02.818Z,23.91
2018-09-03T02:11:11.988Z,23.91
2018-09-03T02:12:21.164Z,23.94
2018-09-03T02:13:30.870Z,23.94
2018-09-03T02:14:39.845Z,23.97
2018-09-03T02:15:49.775Z,23.93
2018-09-03T02:16:58.692Z,23.91
2018-09-03T02:18:08.130Z,23.95
2018-09-03T02:19:17.619Z,23.88
2018-09-03T02:20:26.787Z,23.93
2018-09-03T02:21:36.278Z,23.93
2018-09-03T02:22:45.959Z,23.93
2018-09-03T02:23:54.879Z,23.95
2018-09-03T02:25:04.304Z,23.88
2018-09-03T02:26:13.725Z,23.97
2018-09-03T02:27:23.408Z,23.93
2018-09-03T02:28:32.327Z,23.9
2018-09-03T02:29:42.009Z,23.88
2018-09-03T02:30:51.261Z,23.97
2018-09-03T02:32:00.700Z,23.9
2018-09-03T02:33:10.427Z,23.91
2018-09-03T02:34:19.875Z,23.9
2018-09-03T02:35:29.302Z,23.91
2018-09-03T02:36:38.735Z,23.94
2018-09-03T02:37:48.158Z,23.95
2018-09-03T02:38:57.868Z,23.97
2018-09-03T02:40:07.573Z,23.91
2018-09-03T02:41:16.741Z,23.88
2018-09-03T02:42:25.658Z,23.88
2018-09-03T02:43:35.349Z,23.87
2018-09-03T02:44:45.027Z,23.9
2018-09-03T02:45:54.797Z,23.93
2018-09-03T02:47:04.222Z,23.95
2018-09-03T02:48:13.673Z,23.91
2018-09-03T02:49:23.638Z,23.93
2018-09-03T02:50:33.062Z,23.87
2018-09-03T02:51:42.264Z,23.94
2018-09-03T02:52:51.713Z,23.98
2018-09-03T02:54:00.630Z,23.95
2018-09-03T02:55:10.067Z,23.9
2018-09-03T02:56:19.809Z,23.95
2018-09-03T02:57:29.489Z,23.85
2018-09-03T02:58:38.927Z,23.94
2018-09-03T02:59:48.354Z,23.91
2018-09-03T03:00:58.307Z,23.93
2018-09-03T03:02:08.266Z,23.97
2018-09-03T03:03:17.690Z,23.9
2018-09-03T03:04:27.123Z,23.97
2018-09-03T03:05:36.805Z,23.91
2018-09-03T03:06:46.487Z,23.9
2018-09-03T03:07:56.162Z,23.91
2018-09-03T03:09:05.624Z,23.95
2018-09-03T03:10:15.103Z,23.97
2018-09-03T03:11:24.279Z,23.85
2018-09-03T03:12:33.761Z,23.94
2018-09-03T03:13:42.946Z,23.87
2018-09-03T03:14:52.380Z,23.94
2018-09-03T03:16:01.550Z,23.9
2018-09-03T03:17:11.000Z,23.88
2018-09-03T03:18:20.441Z,23.98
2018-09-03T03:19:29.879Z,23.91
2018-09-03T03:20:39.063Z,23.95
2018-09-03T03:21:48.500Z,23.94
2018-09-03T03:22:57.687Z,23.93
2018-09-03T03:24:06.864Z,23.9
2018-09-03T03:25:16.289Z,23.93
2018-09-03T03:26:25.728Z,23.98
2018-09-03T03:27:35.693Z,23.88
2018-09-03T03:28:45.655Z,23.88
2018-09-03T03:29:54.854Z,23.91
2018-09-03T03:31:03.787Z,23.95
2018-09-03T03:32:13.230Z,23.9
2018-09-03T03:33:22.438Z,23.94
2018-09-03T03:34:31.882Z,23.88
2018-09-03T03:35:41.303Z,23.93
2018-09-03T03:36:50.475Z,23.88
2018-09-03T03:37:59.682Z,23.94
2018-09-03T03:39:09.104Z,23.94
2018-09-03T03:40:18.555Z,23.97
2018-09-03T03:41:27.989Z,23.9
2018-09-03T03:42:37.158Z,23.9
2018-09-03T03:43:46.887Z,23.9
2018-09-03T03:44:56.305Z,23.91
2018-09-03T03:46:05.476Z,23.87
2018-09-03T03:47:15.198Z,23.94
2018-09-03T03:48:24.623Z,23.97
2018-09-03T03:49:34.633Z,23.93
2018-09-03T03:50:43.817Z,23.91
2018-09-03T03:51:53.525Z,23.94
2018-09-03T03:53:03.194Z,23.85
2018-09-03T03:54:12.108Z,23.97
2018-09-03T03:55:21.682Z,23.87
2018-09-03T03:56:31.128Z,23.94
2018-09-03T03:57:40.821Z,24
2018-09-03T03:58:49.980Z,23.97
2018-09-03T03:59:59.729Z,23.94
2018-09-03T04:01:09.162Z,23.95
2018-09-03T04:02:18.590Z,23.94
2018-09-03T04:03:28.035Z,23.94
2018-09-03T04:04:37.723Z,23.94
2018-09-03T04:05:47.151Z,23.94
2018-09-03T04:06:56.328Z,23.95
2018-09-03T04:08:05.772Z,23.93
2018-09-03T04:09:15.478Z,23.93
2018-09-03T04:10:25.225Z,23.91
2018-09-03T04:11:34.682Z,23.9
2018-09-03T04:12:43.844Z,23.91
2018-09-03T04:13:53.306Z,23.94
2018-09-03T04:15:02.724Z,23.94
2018-09-03T04:16:12.576Z,23.91
2018-09-03T04:17:21.758Z,23.93
2018-09-03T04:18:31.204Z,23.95
2018-09-03T04:19:41.170Z,23.85
2018-09-03T04:20:50.855Z,24
2018-09-03T04:22:00.031Z,23.9
2018-09-03T04:23:10.160Z,23.94
2018-09-03T04:24:20.437Z,23.91
2018-09-03T04:25:29.338Z,23.94
2018-09-03T04:26:39.027Z,23.95
2018-09-03T04:27:48.460Z,23.9
2018-09-03T04:28:58.488Z,23.9
2018-09-03T04:30:07.925Z,23.91
2018-09-03T04:31:17.093Z,23.87
2018-09-03T04:32:26.520Z,23.91
2018-09-03T04:33:36.223Z,23.9
2018-09-03T04:34:45.451Z,23.94
2018-09-03T04:35:54.146Z,23.93
2018-09-03T04:37:03.587Z,23.93
2018-09-03T04:38:13.018Z,23.9
2018-09-03T04:39:22.441Z,23.87
2018-09-03T04:40:31.881Z,23.91
2018-09-03T04:41:41.116Z,23.9
2018-09-03T04:42:50.870Z,23.84
2018-09-03T04:44:00.061Z,23.9
2018-09-03T04:45:09.507Z,23.9
2018-09-03T04:46:18.408Z,23.9
2018-09-03T04:47:27.830Z,23.87
2018-09-03T04:48:37.317Z,23.93
2018-09-03T04:49:46.742Z,23.9
2018-09-03T04:50:55.651Z,23.88
2018-09-03T04:52:05.332Z,23.94
2018-09-03T04:53:14.288Z,23.91
2018-09-03T04:54:23.213Z,23.93
2018-09-03T04:55:32.397Z,23.9
2018-09-03T04:56:41.824Z,23.9
2018-09-03T04:57:51.252Z,23.91
2018-09-03T04:59:00.683Z,23.95
2018-09-03T05:00:10.112Z,23.93
2018-09-03T05:01:19.536Z,23.95
2018-09-03T05:02:28.462Z,23.91
2018-09-03T05:03:38.168Z,23.94
2018-09-03T05:04:47.627Z,23.9
2018-09-03T05:05:56.845Z,23.91
2018-09-03T05:07:06.349Z,23.93
2018-09-03T05:08:15.788Z,23.95
2018-09-03T05:09:25.001Z,23.95
2018-09-03T05:10:34.921Z,23.95
2018-09-03T05:11:44.518Z,23.91
2018-09-03T05:12:53.928Z,23.91
2018-09-03T05:14:03.092Z,23.97
2018-09-03T05:15:12.784Z,23.9
2018-09-03T05:16:21.957Z,23.9
2018-09-03T05:17:32.345Z,23.91
2018-09-03T05:18:41.526Z,23.95
2018-09-03T05:19:51.482Z,23.97
2018-09-03T05:21:00.960Z,23.85
2018-09-03T05:22:10.903Z,23.9
2018-09-03T05:23:20.362Z,23.9
2018-09-03T05:24:29.277Z,23.93
2018-09-03T05:25:38.481Z,23.93
2018-09-03T05:26:48.153Z,23.88
2018-09-03T05:27:57.595Z,23.93
2018-09-03T05:29:07.083Z,23.91
2018-09-03T05:30:16.774Z,23.88
2018-09-03T05:31:26.376Z,23.94
2018-09-03T05:32:35.547Z,23.94
2018-09-03T05:33:44.988Z,23.97
2018-09-03T05:34:54.435Z,23.87
2018-09-03T05:36:03.884Z,23.95
2018-09-03T05:37:13.118Z,23.94
2018-09-03T05:38:22.820Z,23.91
2018-09-03T05:39:31.986Z,23.87
2018-09-03T05:40:41.700Z,23.87
2018-09-03T05:41:50.865Z,23.87
2018-09-03T05:43:00.098Z,23.9
2018-09-03T05:44:10.227Z,23.88
2018-09-03T05:45:19.698Z,23.9
2018-09-03T05:46:28.873Z,23.98
2018-09-03T05:47:38.306Z,23.91
2018-09-03T05:48:48.273Z,23.95
2018-09-03T05:49:57.959Z,23.93
2018-09-03T05:51:07.375Z,23.91
2018-09-03T05:52:17.110Z,23.94
2018-09-03T05:53:26.299Z,23.98
2018-09-03T05:54:36.029Z,23.9
2018-09-03T05:55:44.945Z,23.94
2018-09-03T05:56:54.745Z,23.87
2018-09-03T05:58:04.194Z,23.91
2018-09-03T05:59:14.094Z,23.91
2018-09-03T06:00:23.719Z,23.9
2018-09-03T06:01:33.439Z,23.91
2018-09-03T06:02:43.144Z,23.94
2018-09-03T06:03:52.856Z,23.91
2018-09-03T06:05:02.276Z,23.88
2018-09-03T06:06:12.239Z,23.95
2018-09-03T06:07:21.930Z,23.9
2018-09-03T06:08:31.920Z,23.9
2018-09-03T06:09:41.349Z,23.91
2018-09-03T06:10:50.255Z,23.95
2018-09-03T06:11:59.439Z,24
2018-09-03T06:13:08.873Z,23.95
2018-09-03T06:14:18.295Z,23.95
2018-09-03T06:15:27.748Z,23.88
2018-09-03T06:16:37.435Z,23.93
2018-09-03T06:17:46.918Z,23.95
2018-09-03T06:18:57.032Z,23.93
2018-09-03T06:20:06.756Z,23.93
2018-09-03T06:21:16.452Z,23.95
2018-09-03T06:22:25.882Z,23.94
2018-09-03T06:23:35.069Z,23.88
2018-09-03T06:24:44.772Z,23.95
2018-09-03T06:25:54.213Z,23.94
2018-09-03T06:27:03.639Z,23.95
2018-09-03T06:28:12.816Z,23.93
2018-09-03T06:29:21.753Z,23.93
2018-09-03T06:30:30.964Z,23.97
2018-09-03T06:31:40.431Z,23.93
2018-09-03T06:32:50.213Z,23.93
2018-09-03T06:33:59.838Z,23.9
2018-09-03T06:35:09.278Z,23.88
2018-09-03T06:36:18.733Z,23.87
2018-09-03T06:37:27.645Z,23.91
2018-09-03T06:38:37.097Z,23.93
2018-09-03T06:39:46.548Z,23.95
2018-09-03T06:40:55.466Z,23.98
2018-09-03T06:42:04.645Z,23.85
2018-09-03T06:43:14.070Z,23.97
2018-09-03T06:44:23.509Z,23.91
2018-09-03T06:45:33.463Z,23.91
2018-09-03T06:46:42.417Z,23.95
2018-09-03T06:47:51.084Z,23.94
2018-09-03T06:49:00.767Z,23.9
2018-09-03T06:50:10.201Z,23.9
2018-09-03T06:51:19.898Z,23.93
2018-09-03T06:52:29.601Z,23.94
2018-09-03T06:53:39.188Z,23.87
2018-09-03T06:54:48.707Z,23.94
2018-09-03T06:55:58.144Z,24
2018-09-03T06:57:07.580Z,23.95
2018-09-03T06:58:16.771Z,23.88
2018-09-03T06:59:26.497Z,23.88
2018-09-03T07:00:36.069Z,23.94
2018-09-03T07:01:45.508Z,23.93
2018-09-03T07:02:54.418Z,23.88
2018-09-03T07:04:03.583Z,23.93
2018-09-03T07:05:13.256Z,23.91
2018-09-03T07:06:22.985Z,23.85
2018-09-03T07:07:32.424Z,23.88
2018-09-03T07:08:42.121Z,23.9
2018-09-03T07:09:51.581Z,23.91
2018-09-03T07:11:01.318Z,23.88
2018-09-03T07:12:10.499Z,24
2018-09-03T07:13:19.947Z,23.95
2018-09-03T07:14:29.656Z,23.9
2018-09-03T07:15:38.835Z,23.98
2018-09-03T07:16:48.255Z,23.88
2018-09-03T07:17:57.309Z,23.95
2018-09-03T07:19:07.010Z,23.85
2018-09-03T07:20:16.434Z,23.9
2018-09-03T07:21:25.648Z,23.91
2018-09-03T07:22:35.106Z,23.9
2018-09-03T07:23:44.543Z,23.95
2018-09-03T07:24:53.710Z,23.91
2018-09-03T07:26:03.191Z,23.91
2018-09-03T07:27:12.120Z,23.98
2018-09-03T07:28:21.816Z,24
2018-09-03T07:29:30.996Z,23.91
2018-09-03T07:30:39.685Z,23.95
2018-09-03T07:31:49.398Z,23.98
2018-09-03T07:32:58.853Z,23.98
2018-09-03T07:34:08.294Z,23.95
2018-09-03T07:35:17.951Z,23.95
2018-09-03T07:36:27.393Z,23.97
2018-09-03T07:37:37.130Z,23.95
2018-09-03T07:38:46.270Z,23.95
2018-09-03T07:39:55.957Z,24
2018-09-03T07:41:05.391Z,23.94
2018-09-03T07:42:14.829Z,23.94
2018-09-03T07:43:24.271Z,24.02
2018-09-03T07:44:33.955Z,23.98
2018-09-03T07:45:43.690Z,23.93
2018-09-03T07:46:53.143Z,23.91
2018-09-03T07:48:02.855Z,23.93
2018-09-03T07:49:12.037Z,24.02
2018-09-03T07:50:21.487Z,23.93
2018-09-03T07:51:30.924Z,24.06
2018-09-03T07:52:40.354Z,24.02
2018-09-03T07:53:49.797Z,23.98
2018-09-03T07:54:59.536Z,23.95
2018-09-03T07:56:09.001Z,23.88
2018-09-03T07:57:18.171Z,23.95
2018-09-03T07:58:27.343Z,23.97
2018-09-03T07:59:36.769Z,23.93
2018-09-03T08:00:46.226Z,23.93
2018-09-03T08:01:55.433Z,24
2018-09-03T08:03:04.855Z,23.93
2018-09-03T08:04:14.047Z,23.97
2018-09-03T08:05:23.485Z,23.93
2018-09-03T08:06:33.091Z,23.95
2018-09-03T08:07:42.534Z,23.95
2018-09-03T08:08:51.720Z,23.93
2018-09-03T08:10:01.152Z,23.95
2018-09-03T08:11:10.345Z,24.02
2018-09-03T08:12:19.317Z,23.91
2018-09-03T08:13:28.231Z,23.95
2018-09-03T08:14:37.679Z,23.91
2018-09-03T08:15:47.718Z,23.94
2018-09-03T08:16:56.642Z,23.98
2018-09-03T08:18:05.820Z,23.91
2018-09-03T08:19:15.012Z,23.95
2018-09-03T08:20:23.912Z,23.97
2018-09-03T08:21:33.106Z,23.95
2018-09-03T08:22:43.048Z,24
2018-09-03T08:23:52.253Z,23.91
2018-09-03T08:25:01.938Z,23.91
2018-09-03T08:26:10.863Z,23.9
2018-09-03T08:27:20.051Z,23.94
2018-09-03T08:28:30.023Z,23.94
2018-09-03T08:29:39.208Z,24.05
2018-09-03T08:30:48.906Z,23.98
2018-09-03T08:31:58.321Z,23.95
2018-09-03T08:33:07.743Z,23.88
2018-09-03T08:34:16.901Z,23.94
2018-09-03T08:35:26.347Z,23.97
2018-09-03T08:36:36.390Z,24.02
2018-09-03T08:37:45.837Z,23.97
2018-09-03T08:38:55.031Z,23.98
2018-09-03T08:40:04.266Z,23.94
2018-09-03T08:41:13.741Z,24
2018-09-03T08:42:23.683Z,23.93
2018-09-03T08:43:33.109Z,23.94
2018-09-03T08:44:42.417Z,23.94
2018-09-03T08:45:52.268Z,23.98
2018-09-03T08:47:02.208Z,24.05
2018-09-03T08:48:12.250Z,23.93
2018-09-03T08:49:21.675Z,23.91
2018-09-03T08:50:30.924Z,23.91
2018-09-03T08:51:40.616Z,23.94
2018-09-03T08:52:50.312Z,23.98
2018-09-03T08:53:59.742Z,23.95
2018-09-03T08:55:08.655Z,23.93
2018-09-03T08:56:17.807Z,23.9
2018-09-03T08:57:26.988Z,23.93
2018-09-03T08:58:36.931Z,23.93
2018-09-03T08:59:46.149Z,24
2018-09-03T09:00:55.134Z,23.93
2018-09-03T09:02:04.306Z,23.93
2018-09-03T09:03:13.728Z,23.97
2018-09-03T09:04:23.675Z,23.95
2018-09-03T09:05:32.846Z,23.98
2018-09-03T09:06:41.758Z,23.9
2018-09-03T09:07:51.188Z,23.9
2018-09-03T09:09:01.147Z,23.95
2018-09-03T09:10:10.327Z,23.95
2018-09-03T09:11:19.777Z,23.91
2018-09-03T09:12:29.188Z,23.94
2018-09-03T09:13:38.904Z,23.91
2018-09-03T09:14:48.594Z,23.95
2018-09-03T09:15:58.017Z,23.91
2018-09-03T09:17:07.199Z,23.93
2018-09-03T09:18:16.367Z,23.95
2018-09-03T09:19:26.055Z,23.98
2018-09-03T09:20:35.738Z,24
2018-09-03T09:21:45.172Z,23.95
2018-09-03T09:22:54.861Z,23.94
2018-09-03T09:24:03.823Z,23.91
2018-09-03T09:25:13.048Z,23.95
2018-09-03T09:26:23.027Z,24.02
2018-09-03T09:27:31.684Z,24
2018-09-03T09:28:41.166Z,23.9
2018-09-03T09:29:50.847Z,23.9
2018-09-03T09:31:00.280Z,23.97
2018-09-03T09:32:09.544Z,23.98
2018-09-03T09:33:18.955Z,23.97
2018-09-03T09:34:28.657Z,23.91
2018-09-03T09:35:37.829Z,23.95
2018-09-03T09:36:47.408Z,23.97
2018-09-03T09:37:57.275Z,23.93
2018-09-03T09:39:06.966Z,24.06
2018-09-03T09:40:16.447Z,23.93
2018-09-03T09:41:26.196Z,23.93
2018-09-03T09:42:35.627Z,23.91
2018-09-03T09:43:44.824Z,24.02
2018-09-03T09:44:53.999Z,23.97
2018-09-03T09:46:03.711Z,23.94
2018-09-03T09:47:13.415Z,23.95
2018-09-03T09:48:22.847Z,23.97
2018-09-03T09:49:32.528Z,24.08
2018-09-03T09:50:42.210Z,24
2018-09-03T09:51:51.661Z,23.98
2018-09-03T09:53:01.681Z,23.98
2018-09-03T09:54:10.862Z,24
2018-09-03T09:55:20.550Z,23.98
2018-09-03T09:56:29.555Z,24
2018-09-03T09:57:38.765Z,24
2018-09-03T09:58:48.453Z,24.05
2018-09-03T09:59:57.414Z,23.97
2018-09-03T10:01:06.582Z,24
2018-09-03T10:02:15.749Z,24.02
2018-09-03T10:03:25.213Z,23.98
2018-09-03T10:04:34.914Z,23.94
2018-09-03T10:05:44.093Z,24.03
2018-09-03T10:06:53.790Z,24
2018-09-03T10:08:02.703Z,24.02
2018-09-03T10:09:12.399Z,23.97
2018-09-03T10:10:21.770Z,24.02
2018-09-03T10:11:31.193Z,24.08
2018-09-03T10:12:40.880Z,24
2018-09-03T10:13:49.918Z,24.05
2018-09-03T10:14:59.631Z,24.1
2018-09-03T10:16:09.311Z,24.05
2018-09-03T10:17:18.495Z,24.06
2018-09-03T10:18:27.707Z,23.95
2018-09-03T10:19:36.889Z,23.93
2018-09-03T10:20:46.768Z,24.02
2018-09-03T10:21:56.528Z,24.08
2018-09-03T10:23:06.239Z,24.02
2018-09-03T10:24:15.678Z,24.09
2018-09-03T10:25:25.381Z,23.95
2018-09-03T10:26:35.115Z,24.03
2018-09-03T10:27:44.796Z,24.02
2018-09-03T10:28:54.509Z,24.06
2018-09-03T10:30:04.192Z,23.94
2018-09-03T10:31:13.615Z,24.03
2018-09-03T10:32:23.047Z,24.08
2018-09-03T10:33:32.828Z,24.08
2018-09-03T10:34:41.750Z,24.03
2018-09-03T10:35:51.181Z,23.94
2018-09-03T10:37:01.132Z,23.97
2018-09-03T10:38:11.381Z,24.03
2018-09-03T10:39:21.431Z,24.02
2018-09-03T10:40:30.872Z,24.06
2018-09-03T10:41:40.551Z,24.02
2018-09-03T10:42:50.276Z,24.06
2018-09-03T10:43:59.696Z,24.02
2018-09-03T10:45:09.796Z,24
2018-09-03T10:46:19.236Z,23.95
2018-09-03T10:47:28.708Z,24.05
2018-09-03T10:48:38.522Z,24.03
2018-09-03T10:49:47.711Z,24.05
2018-09-03T10:50:56.940Z,24.05
2018-09-03T10:52:06.105Z,24.02
2018-09-03T10:53:15.541Z,24.08
2018-09-03T10:54:24.732Z,23.95
2018-09-03T10:55:34.166Z,24.1
2018-09-03T10:56:43.403Z,24.06
2018-09-03T10:57:52.848Z,24.03
2018-09-03T10:59:01.915Z,24.09
2018-09-03T11:00:11.097Z,24.03
2018-09-03T11:01:20.263Z,24.02
2018-09-03T11:02:29.719Z,23.94
2018-09-03T11:03:38.655Z,24.05
2018-09-03T11:04:47.810Z,24
2018-09-03T11:05:57.015Z,24.05
2018-09-03T11:07:06.427Z,24.08
2018-09-03T11:08:15.876Z,23.93
2018-09-03T11:09:24.528Z,24.05
2018-09-03T11:10:34.483Z,24.08
2018-09-03T11:11:43.977Z,24.08
2018-09-03T11:12:53.395Z,23.98
2018-09-03T11:14:02.920Z,24.05
2018-09-03T11:15:12.739Z,24.08
2018-09-03T11:16:21.945Z,24.08
2018-09-03T11:17:31.143Z,24.03
2018-09-03T11:18:40.552Z,24.05
2018-09-03T11:19:50.627Z,24.08
2018-09-03T11:20:59.598Z,24.06
2018-09-03T11:22:09.335Z,24.05
2018-09-03T11:23:18.534Z,24.06
2018-09-03T11:24:27.732Z,24.09
2018-09-03T11:25:37.158Z,24.03
2018-09-03T11:26:46.591Z,24.06
2018-09-03T11:27:56.597Z,24.08
2018-09-03T11:29:06.048Z,24.08
2018-09-03T11:30:16.044Z,24.08
2018-09-03T11:31:25.280Z,24.03
2018-09-03T11:32:34.715Z,24.12
2018-09-03T11:33:44.161Z,24.08
2018-09-03T11:34:54.104Z,24.03
2018-09-03T11:36:03.854Z,24.05
2018-09-03T11:37:13.284Z,24.12
2018-09-03T11:38:22.708Z,24.1
2018-09-03T11:39:31.884Z,23.97
2018-09-03T11:40:41.088Z,24.1
2018-09-03T11:41:50.895Z,24.08
2018-09-03T11:42:59.820Z,24.08
2018-09-03T11:44:09.759Z,24.09
2018-09-03T11:45:18.929Z,24.12
2018-09-03T11:46:28.341Z,24.1
2018-09-03T11:47:37.294Z,24.06
2018-09-03T11:48:46.996Z,24.03
2018-09-03T11:49:56.457Z,24.1
2018-09-03T11:51:05.893Z,23.95
2018-09-03T11:52:15.319Z,24.08
2018-09-03T11:53:24.474Z,24
2018-09-03T11:54:34.086Z,24.02
2018-09-03T11:55:43.960Z,24.09
2018-09-03T11:56:53.262Z,24.1
2018-09-03T11:58:03.366Z,24.05
2018-09-03T11:59:12.642Z,24.06
2018-09-03T12:00:22.358Z,24.09
2018-09-03T12:01:31.302Z,24
2018-09-03T12:02:40.977Z,23.95
2018-09-03T12:03:50.403Z,24.09
2018-09-03T12:05:00.096Z,24.06
2018-09-03T12:06:09.558Z,24.06
2018-09-03T12:07:18.989Z,24.05
2018-09-03T12:08:28.412Z,24.09
2018-09-03T12:09:37.856Z,24.08
2018-09-03T12:10:47.075Z,24.06
2018-09-03T12:11:56.222Z,24.06
2018-09-03T12:13:05.130Z,24.08
2018-09-03T12:14:14.803Z,24.05
2018-09-03T12:15:24.230Z,24.02
2018-09-03T12:16:33.650Z,24.06
2018-09-03T12:17:42.820Z,24.12
2018-09-03T12:18:51.749Z,24.09
2018-09-03T12:20:01.165Z,24.09
2018-09-03T12:21:11.139Z,24.1
2018-09-03T12:22:20.532Z,24.09
2018-09-03T12:23:29.703Z,24.06
2018-09-03T12:24:39.387Z,24.06
2018-09-03T12:25:49.310Z,24.12
2018-09-03T12:26:59.013Z,24.06
2018-09-03T12:28:08.441Z,24.12
2018-09-03T12:29:17.893Z,24.06
2018-09-03T12:30:27.376Z,24.06
2018-09-03T12:31:37.442Z,24.12
2018-09-03T12:32:46.952Z,24.13
2018-09-03T12:33:56.383Z,24.12
2018-09-03T12:35:05.808Z,24.03
2018-09-03T12:36:14.964Z,24.13
2018-09-03T12:37:24.706Z,24.13
2018-09-03T12:38:34.661Z,24.05
2018-09-03T12:39:44.124Z,24.12
2018-09-03T12:40:53.422Z,24.16
2018-09-03T12:42:02.858Z,24.03
2018-09-03T12:43:12.299Z,24.16
2018-09-03T12:44:21.505Z,24.08
2018-09-03T12:45:30.958Z,24.12
2018-09-03T12:46:40.131Z,24.13
2018-09-03T12:47:49.299Z,24.08
2018-09-03T12:48:58.755Z,24.08
2018-09-03T12:50:08.643Z,24.09
2018-09-03T12:51:18.343Z,24.16
2018-09-03T12:52:28.212Z,24.15
2018-09-03T12:53:37.343Z,24.05
2018-09-03T12:54:47.042Z,24.21
2018-09-03T12:55:56.490Z,24.21
2018-09-03T12:57:05.923Z,24.2
2018-09-03T12:58:15.343Z,24.16
2018-09-03T12:59:24.831Z,24.2
2018-09-03T13:00:38.676Z,24.18
2018-09-03T13:01:48.600Z,24.18
2018-09-03T13:02:58.520Z,24.2
2018-09-03T13:04:08.017Z,24.24
2018-09-03T13:05:17.831Z,24.24
2018-09-03T13:06:27.635Z,24.22
2018-09-03T13:07:36.532Z,24.2
2018-09-03T13:08:46.525Z,24.25
2018-09-03T13:09:55.973Z,24.1
2018-09-03T13:11:05.391Z,24.2
2018-09-03T13:12:14.621Z,24.2
2018-09-03T13:13:24.492Z,24.16
2018-09-03T13:14:34.377Z,24.28
2018-09-03T13:15:44.319Z,24.21
2018-09-03T13:16:54.045Z,24.12
2018-09-03T13:18:03.095Z,24.15
2018-09-03T13:19:12.281Z,24.13
2018-09-03T13:20:21.778Z,24.31
2018-09-03T13:21:31.714Z,24.22
2018-09-03T13:22:41.142Z,24.25
2018-09-03T13:23:50.819Z,24.18
2018-09-03T13:25:00.746Z,24.28
2018-09-03T13:26:10.218Z,24.1
2018-09-03T13:27:19.377Z,24.08
2018-09-03T13:28:28.789Z,24.27
2018-09-03T13:29:37.956Z,24.28
2018-09-03T13:30:47.807Z,24.25
2018-09-03T13:31:57.760Z,24.24
2018-09-03T13:33:07.448Z,24.2
2018-09-03T13:34:16.869Z,24.24
2018-09-03T13:35:26.294Z,24.22
2018-09-03T13:36:35.702Z,24.24
2018-09-03T13:37:45.415Z,24.24
2018-09-03T13:38:54.317Z,24.12
2018-09-03T13:40:03.482Z,24.22
2018-09-03T13:41:12.904Z,24.3
2018-09-03T13:42:22.975Z,24.25
2018-09-03T13:43:33.174Z,24.25
2018-09-03T13:44:42.358Z,24.15
2018-09-03T13:45:52.026Z,24.18
2018-09-03T13:47:01.455Z,24.21
2018-09-03T13:48:11.910Z,24.21
2018-09-03T13:49:21.717Z,24.21
2018-09-03T13:50:31.563Z,24.24
2018-09-03T13:51:40.992Z,24.25
2018-09-03T13:52:50.659Z,24.13
2018-09-03T13:53:59.846Z,24.28
2018-09-03T13:55:09.903Z,24.22
2018-09-03T13:56:19.419Z,24.28
2018-09-03T13:57:28.688Z,24.28
2018-09-03T13:58:38.620Z,24.24
2018-09-03T13:59:48.047Z,24.13
2018-09-03T14:00:57.479Z,24.22
2018-09-03T14:02:07.151Z,24.3
2018-09-03T14:03:16.599Z,24.22
2018-09-03T14:04:25.269Z,24.22
2018-09-03T14:05:34.755Z,24.21
2018-09-03T14:06:44.221Z,24.25
2018-09-03T14:07:54.017Z,24.22
2018-09-03T14:09:03.175Z,24.18
2018-09-03T14:10:12.503Z,24.21
2018-09-03T14:11:22.127Z,24.34
2018-09-03T14:12:31.867Z,24.08
2018-09-03T14:13:41.793Z,24.1
2018-09-03T14:14:51.466Z,24.22
2018-09-03T14:16:00.912Z,24.12
2018-09-03T14:17:10.621Z,24.21
2018-09-03T14:18:20.056Z,24.09
2018-09-03T14:19:29.817Z,24.31
2018-09-03T14:20:39.562Z,24.28
2018-09-03T14:21:49.287Z,24.31
2018-09-03T14:22:58.982Z,24.2
2018-09-03T14:24:08.920Z,24.12
2018-09-03T14:25:18.378Z,24.27
2018-09-03T14:26:27.058Z,24.27
2018-09-03T14:27:36.541Z,24.24
2018-09-03T14:28:46.094Z,24.21
2018-09-03T14:29:55.258Z,24.27
2018-09-03T14:31:04.410Z,24.27
2018-09-03T14:32:13.633Z,24.12
2018-09-03T14:33:22.524Z,24.24
2018-09-03T14:34:31.678Z,24.18
2018-09-03T14:35:40.614Z,24.32
2018-09-03T14:36:50.032Z,24.22
2018-09-03T14:37:59.043Z,24.2
2018-09-03T14:39:08.732Z,24.24
2018-09-03T14:40:18.872Z,24.25
2018-09-03T14:41:28.756Z,24.16
2018-09-03T14:42:38.486Z,24.27
2018-09-03T14:43:48.130Z,24.18
2018-09-03T14:44:57.545Z,24.15
2018-09-03T14:46:06.983Z,24.27
2018-09-03T14:47:17.266Z,24.27
2018-09-03T14:48:26.953Z,24.27
2018-09-03T14:49:37.195Z,24.31
2018-09-03T14:50:47.106Z,24.2
2018-09-03T14:51:57.471Z,24.32
2018-09-03T14:53:06.576Z,24.27
2018-09-03T14:54:15.994Z,24.3
2018-09-03T14:55:25.665Z,24.28
2018-09-03T14:56:35.344Z,24.34
2018-09-03T14:57:44.756Z,24.32
2018-09-03T14:58:54.238Z,24.28
2018-09-03T15:00:03.437Z,24.32
2018-09-03T15:01:14.190Z,24.35